createdAt,value
2018-11-23T00:01:52.730Z,2.14
2018-11-23T00:04:23.465Z,2.15
2018-11-23T00:06:54.441Z,2.13
2018-11-23T00:09:25.325Z,2.13
2018-11-23T00:11:56.605Z,2.10
2018-11-23T00:14:27.812Z,2.12
2018-11-23T00:16:58.875Z,2.09
2018-11-23T00:19:30.099Z,2.07
2018-11-23T00:22:01.148Z,2.04
2018-11-23T00:24:32.074Z,1.97
2018-11-23T00:27:03.253Z,1.91
2018-11-23T00:29:34.152Z,1.89
2018-11-23T00:32:05.313Z,1.91
2018-11-23T00:34:36.236Z,1.87
2018-11-23T00:37:08.252Z,1.85
2018-11-23T00:39:39.128Z,1.85
2018-11-23T00:42:10.101Z,1.85
2018-11-23T00:44:40.936Z,1.83
2018-11-23T00:47:12.622Z,1.79
2018-11-23T00:49:43.701Z,1.80
2018-11-23T00:52:14.648Z,1.79
2018-11-23T00:54:45.689Z,1.75
2018-11-23T00:57:16.643Z,1.72
2018-11-23T00:59:47.992Z,1.71
2018-11-23T01:02:19.033Z,1.70
2018-11-23T01:04:49.640Z,1.69
2018-11-23T01:07:20.824Z,1.65
2018-11-23T01:09:51.738Z,1.62
2018-11-23T01:12:22.869Z,1.60
2018-11-23T01:14:53.893Z,1.62
2018-11-23T01:17:24.752Z,1.62
2018-11-23T01:19:55.742Z,1.63
2018-11-23T01:22:26.760Z,1.66
2018-11-23T01:24:57.678Z,1.67
2018-11-23T01:27:28.758Z,1.63
2018-11-23T01:29:59.668Z,1.62
2018-11-23T01:32:30.653Z,1.59
2018-11-23T01:35:02.754Z,1.58
2018-11-23T01:37:35.958Z,1.62
2018-11-23T01:40:08.750Z,1.60
2018-11-23T01:42:39.645Z,1.57
2018-11-23T01:45:11.899Z,1.55
2018-11-23T01:47:42.896Z,1.48
2018-11-23T01:50:17.051Z,1.44
2018-11-23T01:52:49.385Z,1.37
2018-11-23T01:55:21.603Z,1.29
2018-11-23T01:57:52.597Z,1.31
2018-11-23T02:00:25.281Z,1.35
2018-11-23T02:02:57.238Z,1.39
2018-11-23T02:05:28.119Z,1.42
2018-11-23T02:07:58.969Z,1.43
2018-11-23T02:10:29.917Z,1.52
2018-11-23T02:13:01.066Z,1.59
2018-11-23T02:15:31.976Z,1.58
2018-11-23T02:18:03.240Z,1.55
2018-11-23T02:20:34.269Z,1.55
2018-11-23T02:23:07.397Z,1.53
2018-11-23T02:25:38.304Z,1.54
2018-11-23T02:28:09.258Z,1.52
2018-11-23T02:30:40.293Z,1.56
2018-11-23T02:33:11.368Z,1.54
2018-11-23T02:35:42.377Z,1.55
2018-11-23T02:38:13.388Z,1.55
2018-11-23T02:40:44.351Z,1.54
2018-11-23T02:43:15.228Z,1.52
2018-11-23T02:45:46.306Z,1.46
2018-11-23T02:48:17.252Z,1.44
2018-11-23T02:50:48.305Z,1.45
2018-11-23T02:53:19.325Z,1.45
2018-11-23T02:55:50.199Z,1.47
2018-11-23T02:58:21.838Z,1.50
2018-11-23T03:00:52.886Z,1.50
2018-11-23T03:03:23.898Z,1.48
2018-11-23T03:05:55.572Z,1.46
2018-11-23T03:08:26.481Z,1.42
2018-11-23T03:10:57.461Z,1.43
2018-11-23T03:13:28.367Z,1.43
2018-11-23T03:15:59.317Z,1.43
2018-11-23T03:18:30.285Z,1.41
2018-11-23T03:21:01.266Z,1.39
2018-11-23T03:23:32.127Z,1.38
2018-11-23T03:26:02.944Z,1.39
2018-11-23T03:28:34.021Z,1.36
2018-11-23T03:31:12.318Z,1.34
2018-11-23T03:33:36.138Z,1.33
2018-11-23T03:36:07.241Z,1.32
2018-11-23T03:38:38.402Z,1.29
2018-11-23T03:41:09.284Z,1.30
2018-11-23T03:43:40.630Z,1.29
2018-11-23T03:46:11.511Z,1.28
2018-11-23T03:48:42.448Z,1.26
2018-11-23T03:51:13.557Z,1.23
2018-11-23T03:53:44.513Z,1.25
2018-11-23T03:56:15.834Z,1.25
2018-11-23T03:58:47.311Z,1.25
2018-11-23T04:01:18.440Z,1.25
2018-11-23T04:03:49.405Z,1.24
2018-11-23T04:06:22.274Z,1.28
2018-11-23T04:08:53.401Z,1.23
2018-11-23T04:11:24.363Z,1.24
2018-11-23T04:13:55.732Z,1.21
2018-11-23T04:16:26.647Z,1.20
2018-11-23T04:18:57.629Z,1.21
2018-11-23T04:21:28.534Z,1.24
2018-11-23T04:23:59.463Z,1.26
2018-11-23T04:26:30.609Z,1.25
2018-11-23T04:29:01.642Z,1.26
2018-11-23T04:31:32.596Z,1.26
2018-11-23T04:34:03.601Z,1.23
2018-11-23T04:36:34.761Z,1.27
2018-11-23T04:39:07.777Z,1.32
2018-11-23T04:41:46.256Z,1.27
2018-11-23T04:44:11.145Z,1.25
2018-11-23T04:46:42.020Z,1.23
2018-11-23T04:49:12.912Z,1.22
2018-11-23T04:51:43.785Z,1.21
2018-11-23T04:54:15.456Z,1.21
2018-11-23T04:56:46.352Z,1.19
2018-11-23T04:59:17.489Z,1.21
2018-11-23T05:01:48.428Z,1.21
2018-11-23T05:04:19.352Z,1.19
2018-11-23T05:06:50.408Z,1.19
2018-11-23T05:09:22.232Z,1.18
2018-11-23T05:11:53.300Z,1.15
2018-11-23T05:14:24.264Z,1.17
2018-11-23T05:16:55.109Z,1.17
2018-11-23T05:19:25.984Z,1.09
2018-11-23T05:21:56.933Z,1.02
2018-11-23T05:24:27.906Z,1.00
2018-11-23T05:26:58.825Z,0.96
2018-11-23T05:29:29.792Z,0.94
2018-11-23T05:32:00.817Z,0.92
2018-11-23T05:34:32.289Z,0.89
2018-11-23T05:37:03.205Z,0.85
2018-11-23T05:39:34.752Z,0.85
2018-11-23T05:42:05.996Z,0.85
2018-11-23T05:44:37.024Z,0.91
2018-11-23T05:47:08.000Z,0.86
2018-11-23T05:49:38.937Z,0.85
2018-11-23T05:52:09.857Z,0.92
2018-11-23T05:54:41.180Z,0.90
2018-11-23T05:57:12.138Z,0.84
2018-11-23T05:59:43.490Z,0.75
2018-11-23T06:02:14.392Z,0.74
2018-11-23T06:04:45.528Z,0.81
2018-11-23T06:07:16.704Z,0.83
2018-11-23T06:09:47.926Z,0.75
2018-11-23T06:12:19.253Z,0.73
2018-11-23T06:14:51.428Z,0.74
2018-11-23T06:17:22.280Z,0.71
2018-11-23T06:19:53.552Z,0.71
2018-11-23T06:22:24.496Z,0.64
2018-11-23T06:24:55.648Z,0.52
2018-11-23T06:27:26.556Z,0.42
2018-11-23T06:29:58.251Z,0.44
2018-11-23T06:32:46.274Z,0.43
2018-11-23T06:35:17.210Z,0.40
2018-11-23T06:37:48.872Z,0.40
2018-11-23T06:40:20.038Z,0.45
2018-11-23T06:42:50.979Z,0.39
2018-11-23T06:45:22.218Z,0.39
2018-11-23T06:47:53.936Z,0.44
2018-11-23T06:50:24.892Z,0.46
2018-11-23T06:52:56.741Z,0.52
2018-11-23T06:55:27.657Z,0.58
2018-11-23T06:57:59.213Z,0.60
2018-11-23T07:00:30.288Z,0.61
2018-11-23T07:03:01.557Z,0.66
2018-11-23T07:05:33.361Z,0.73
2018-11-23T07:08:04.835Z,0.75
2018-11-23T07:10:35.828Z,0.82
2018-11-23T07:13:07.357Z,0.90
2018-11-23T07:15:38.607Z,1.03
2018-11-23T07:18:09.485Z,1.17
2018-11-23T07:20:41.049Z,1.36
2018-11-23T07:23:11.966Z,1.53
2018-11-23T07:25:43.028Z,1.71
2018-11-23T07:28:15.636Z,1.86
2018-11-23T07:30:44.964Z,1.96
2018-11-23T07:33:15.808Z,2.08
2018-11-23T07:35:46.722Z,2.25
2018-11-23T07:38:17.756Z,2.44
2018-11-23T07:41:05.605Z,2.51
2018-11-23T07:43:36.579Z,2.57
2018-11-23T07:46:07.632Z,2.70
2018-11-23T07:48:38.665Z,2.84
2018-11-23T07:51:09.620Z,2.96
2018-11-23T07:53:40.472Z,3.07
2018-11-23T07:56:11.384Z,3.11
2018-11-23T07:58:42.308Z,3.24
2018-11-23T08:01:13.385Z,3.41
2018-11-23T08:03:44.796Z,3.55
2018-11-23T08:06:15.845Z,3.66
2018-11-23T08:08:46.465Z,3.81
2018-11-23T08:11:17.424Z,3.93
2018-11-23T08:13:48.292Z,4.02
2018-11-23T08:16:19.317Z,4.11
2018-11-23T08:18:50.226Z,4.21
2018-11-23T08:21:21.413Z,4.20
2018-11-23T08:23:52.536Z,4.17
2018-11-23T08:26:23.680Z,4.25
2018-11-23T08:28:54.655Z,4.37
2018-11-23T08:31:25.677Z,4.44
2018-11-23T08:33:56.580Z,4.52
2018-11-23T08:36:27.645Z,4.65
2018-11-23T08:39:04.611Z,4.75
2018-11-23T08:41:30.253Z,4.85
2018-11-23T08:44:01.045Z,4.99
2018-11-23T08:46:32.034Z,5.05
2018-11-23T08:49:03.685Z,5.11
2018-11-23T08:51:34.875Z,5.24
2018-11-23T08:54:06.381Z,5.37
2018-11-23T08:56:37.001Z,5.47
2018-11-23T08:59:07.913Z,5.47
2018-11-23T09:01:39.850Z,5.48
2018-11-23T09:04:10.896Z,5.56
2018-11-23T09:06:41.839Z,5.64
2018-11-23T09:09:12.896Z,5.80
2018-11-23T09:11:43.828Z,5.94
2018-11-23T09:14:14.692Z,6.04
2018-11-23T09:16:45.682Z,6.07
2018-11-23T09:19:17.445Z,6.14
2018-11-23T09:21:48.387Z,6.29
2018-11-23T09:24:19.412Z,6.43
2018-11-23T09:26:50.361Z,6.54
2018-11-23T09:29:21.641Z,6.66
2018-11-23T09:31:52.860Z,6.73
2018-11-23T09:34:23.785Z,6.87
2018-11-23T09:36:54.707Z,6.97
2018-11-23T09:39:25.761Z,6.97
2018-11-23T09:41:56.718Z,7.14
2018-11-23T09:44:27.649Z,7.38
2018-11-23T09:46:58.313Z,7.51
2018-11-23T09:49:29.250Z,7.68
2018-11-23T09:52:00.779Z,7.82
2018-11-23T09:54:31.726Z,7.96
2018-11-23T09:57:02.449Z,8.08
2018-11-23T09:59:33.986Z,8.22
2018-11-23T10:02:04.538Z,8.31
2018-11-23T10:04:35.267Z,8.43
2018-11-23T10:07:06.591Z,8.52
2018-11-23T10:09:37.524Z,8.48
2018-11-23T10:12:08.147Z,8.49
2018-11-23T10:14:38.816Z,8.59
2018-11-23T10:17:09.493Z,8.64
2018-11-23T10:19:40.392Z,8.72
2018-11-23T10:22:11.125Z,8.83
2018-11-23T10:24:41.730Z,8.93
2018-11-23T10:27:12.506Z,9.03
2018-11-23T10:29:43.061Z,9.07
2018-11-23T10:32:13.700Z,9.11
2018-11-23T10:34:44.679Z,9.11
2018-11-23T10:37:15.406Z,9.22
2018-11-23T10:39:46.301Z,9.31
2018-11-23T10:42:17.801Z,9.39
2018-11-23T10:44:48.414Z,9.39
2018-11-23T10:47:19.183Z,9.22
2018-11-23T10:49:50.816Z,9.14
2018-11-23T10:52:22.017Z,9.15
2018-11-23T10:54:52.740Z,9.23
2018-11-23T10:57:24.460Z,9.25
2018-11-23T10:59:55.153Z,9.29
2018-11-23T11:02:31.757Z,9.37
2018-11-23T11:06:07.535Z,9.40
2018-11-23T11:08:39.136Z,9.37
2018-11-23T11:11:13.507Z,9.37
2018-11-23T11:13:40.713Z,9.43
2018-11-23T11:16:12.400Z,9.47
2018-11-23T11:18:43.117Z,9.56
2018-11-23T11:21:13.757Z,9.65
2018-11-23T11:23:44.560Z,9.75
2018-11-23T11:26:15.313Z,9.67
2018-11-23T11:28:45.620Z,9.76
2018-11-23T11:31:16.408Z,9.84
2018-11-23T11:33:47.101Z,9.90
2018-11-23T11:36:17.932Z,9.98
2018-11-23T11:38:48.652Z,9.99
2018-11-23T11:41:19.524Z,9.97
2018-11-23T11:43:50.212Z,10.01
2018-11-23T11:46:20.841Z,9.88
2018-11-23T11:48:51.496Z,9.74
2018-11-23T11:51:22.765Z,9.70
2018-11-23T11:53:53.370Z,9.69
2018-11-23T11:56:25.104Z,9.65
2018-11-23T11:58:55.693Z,9.63
2018-11-23T12:01:27.128Z,9.71
2018-11-23T12:03:59.448Z,9.79
2018-11-23T12:06:30.557Z,9.86
2018-11-23T12:09:01.401Z,9.83
2018-11-23T12:11:31.970Z,9.79
2018-11-23T12:14:03.045Z,9.75
2018-11-23T12:16:33.661Z,9.76
2018-11-23T12:19:04.309Z,9.77
2018-11-23T12:21:35.137Z,9.67
2018-11-23T12:24:06.109Z,9.65
2018-11-23T12:26:37.880Z,9.61
2018-11-23T12:29:08.449Z,9.56
2018-11-23T12:31:39.008Z,9.60
2018-11-23T12:34:09.904Z,9.54
2018-11-23T12:36:40.712Z,9.44
2018-11-23T12:39:12.213Z,9.40
2018-11-23T12:41:42.797Z,9.31
2018-11-23T12:44:13.421Z,9.31
2018-11-23T12:46:44.056Z,9.34
2018-11-23T12:49:15.031Z,9.26
2018-11-23T12:51:46.096Z,9.16
2018-11-23T12:54:16.725Z,9.12
2018-11-23T12:56:47.473Z,9.14
2018-11-23T12:59:18.471Z,9.07
2018-11-23T13:01:49.232Z,8.92
2018-11-23T13:04:19.933Z,8.88
2018-11-23T13:06:50.910Z,8.83
2018-11-23T13:09:21.522Z,8.73
2018-11-23T13:11:52.356Z,8.74
2018-11-23T13:14:22.960Z,8.73
2018-11-23T13:16:53.716Z,8.67
2018-11-23T13:19:24.675Z,8.60
2018-11-23T13:21:55.389Z,8.63
2018-11-23T13:24:26.358Z,8.66
2018-11-23T13:26:57.095Z,8.66
2018-11-23T13:29:27.810Z,8.62
2018-11-23T13:31:58.724Z,8.59
2018-11-23T13:34:29.616Z,8.58
2018-11-23T13:37:00.410Z,8.62
2018-11-23T13:39:31.336Z,8.54
2018-11-23T13:42:02.274Z,8.43
2018-11-23T13:44:33.599Z,8.28
2018-11-23T13:47:04.864Z,8.22
2018-11-23T13:49:35.397Z,8.14
2018-11-23T13:52:06.578Z,8.01
2018-11-23T13:54:37.261Z,7.97
2018-11-23T13:57:08.545Z,7.92
2018-11-23T13:59:39.546Z,7.88
2018-11-23T14:02:10.317Z,7.81
2018-11-23T14:04:41.001Z,7.71
2018-11-23T14:07:12.533Z,7.67
2018-11-23T14:09:43.217Z,7.68
2018-11-23T14:12:14.246Z,7.56
2018-11-23T14:14:45.009Z,7.52
2018-11-23T14:17:15.592Z,7.46
2018-11-23T14:19:46.245Z,7.41
2018-11-23T14:22:17.197Z,7.43
2018-11-23T14:24:48.057Z,7.39
2018-11-23T14:27:18.737Z,7.35
2018-11-23T14:29:49.704Z,7.24
2018-11-23T14:32:20.628Z,7.13
2018-11-23T14:34:51.598Z,6.96
2018-11-23T14:37:22.589Z,6.91
2018-11-23T14:39:53.953Z,6.88
2018-11-23T14:42:24.887Z,6.84
2018-11-23T14:44:55.574Z,6.79
2018-11-23T14:47:26.732Z,6.64
2018-11-23T14:49:57.760Z,6.55
2018-11-23T14:52:28.814Z,6.43
2018-11-23T14:54:59.787Z,6.40
2018-11-23T14:57:30.742Z,6.22
2018-11-23T15:00:01.769Z,6.13
2018-11-23T15:02:32.904Z,6.13
2018-11-23T15:05:03.939Z,6.08
2018-11-23T15:07:35.521Z,6.01
2018-11-23T15:10:11.292Z,5.96
2018-11-23T15:12:42.639Z,5.72
2018-11-23T15:15:16.358Z,5.68
2018-11-23T15:17:48.493Z,5.67
2018-11-23T15:20:23.236Z,5.72
2018-11-23T15:22:58.841Z,5.60
2018-11-23T15:25:30.829Z,5.57
2018-11-23T15:28:01.696Z,5.62
2018-11-23T15:30:33.961Z,5.60
2018-11-23T15:33:05.612Z,5.66
2018-11-23T15:35:38.470Z,5.62
2018-11-23T15:38:13.624Z,5.56
2018-11-23T15:40:44.620Z,5.53
2018-11-23T15:43:16.564Z,5.45
2018-11-23T15:45:47.717Z,5.43
2018-11-23T15:48:18.624Z,5.44
2018-11-23T15:50:50.034Z,5.41
2018-11-23T15:53:20.776Z,5.40
2018-11-23T15:55:51.894Z,5.39
2018-11-23T15:58:22.810Z,5.37
2018-11-23T16:00:53.778Z,5.43
2018-11-23T16:03:24.925Z,5.40
2018-11-23T16:05:56.073Z,5.39
2018-11-23T16:08:27.017Z,5.43
2018-11-23T16:10:57.941Z,5.49
2018-11-23T16:13:28.870Z,5.50
2018-11-23T16:15:59.984Z,5.47
2018-11-23T16:18:31.121Z,5.45
2018-11-23T16:21:02.082Z,5.38
2018-11-23T16:23:32.941Z,5.39
2018-11-23T16:26:03.557Z,5.43
2018-11-23T16:28:34.600Z,5.36
2018-11-23T16:31:05.468Z,5.45
2018-11-23T16:33:37.989Z,5.34
2018-11-23T16:36:09.377Z,5.26
2018-11-23T16:38:40.254Z,5.28
2018-11-23T16:41:11.341Z,5.26
2018-11-23T16:43:42.395Z,5.26
2018-11-23T16:46:14.976Z,5.29
2018-11-23T16:48:47.328Z,5.33
2018-11-23T16:51:18.245Z,5.35
2018-11-23T16:53:49.414Z,5.44
2018-11-23T16:56:20.608Z,5.37
2018-11-23T16:58:51.480Z,5.32
2018-11-23T17:01:22.413Z,5.27
2018-11-23T17:03:53.366Z,5.29
2018-11-23T17:06:24.398Z,5.32
2018-11-23T17:08:55.460Z,5.29
2018-11-23T17:11:26.899Z,5.28
2018-11-23T17:13:58.229Z,5.31
2018-11-23T17:16:29.308Z,5.27
2018-11-23T17:19:00.277Z,5.31
2018-11-23T17:21:31.257Z,5.32
2018-11-23T17:24:02.187Z,5.40
2018-11-23T17:26:33.104Z,5.38
2018-11-23T17:29:04.071Z,5.42
2018-11-23T17:31:35.346Z,5.44
2018-11-23T17:34:06.859Z,5.49
2018-11-23T17:36:37.881Z,5.50
2018-11-23T17:39:09.992Z,5.51
2018-11-23T17:41:41.099Z,5.49
2018-11-23T17:44:12.021Z,5.42
2018-11-23T17:46:42.958Z,5.35
2018-11-23T17:49:14.044Z,5.28
2018-11-23T17:51:45.094Z,5.22
2018-11-23T17:54:16.204Z,5.21
2018-11-23T17:56:47.199Z,5.26
2018-11-23T17:59:18.273Z,5.26
2018-11-23T18:01:49.291Z,5.28
2018-11-23T18:04:20.189Z,5.32
2018-11-23T18:06:51.086Z,5.28
2018-11-23T18:09:22.146Z,5.31
2018-11-23T18:11:53.201Z,5.30
2018-11-23T18:14:24.105Z,5.24
2018-11-23T18:16:55.475Z,5.25
2018-11-23T18:19:27.109Z,5.26
2018-11-23T18:21:58.104Z,5.25
2018-11-23T18:24:29.232Z,5.27
2018-11-23T18:27:00.226Z,5.30
2018-11-23T18:29:31.198Z,5.23
2018-11-23T18:32:03.477Z,5.23
2018-11-23T18:34:34.385Z,5.26
2018-11-23T18:37:05.953Z,5.24
2018-11-23T18:39:36.905Z,5.28
2018-11-23T18:42:08.178Z,5.27
2018-11-23T18:44:40.095Z,5.23
2018-11-23T18:47:11.233Z,5.21
2018-11-23T18:49:42.275Z,5.23
2018-11-23T18:52:13.565Z,5.22
2018-11-23T18:54:44.669Z,5.25
2018-11-23T18:57:15.628Z,5.26
2018-11-23T18:59:46.636Z,5.23
2018-11-23T19:02:17.854Z,5.21
2018-11-23T19:04:49.136Z,5.20
2018-11-23T19:07:20.369Z,5.19
2018-11-23T19:09:51.425Z,5.17
2018-11-23T19:12:22.353Z,5.17
2018-11-23T19:14:53.285Z,5.16
2018-11-23T19:17:24.437Z,5.14
2018-11-23T19:19:56.583Z,5.13
2018-11-23T19:22:26.404Z,5.12
2018-11-23T19:24:57.332Z,5.13
2018-11-23T19:27:28.309Z,5.20
2018-11-23T19:29:59.225Z,5.27
2018-11-23T19:32:30.181Z,5.23
2018-11-23T19:35:02.200Z,5.26
2018-11-23T19:37:33.249Z,5.29
2018-11-23T19:40:05.660Z,5.29
2018-11-23T19:42:36.588Z,5.38
2018-11-23T19:45:13.151Z,5.37
2018-11-23T19:47:44.152Z,5.26
2018-11-23T19:50:17.868Z,5.28
2018-11-23T19:52:49.147Z,5.17
2018-11-23T19:55:20.084Z,5.14
2018-11-23T19:57:51.061Z,5.20
2018-11-23T20:00:24.776Z,5.15
2018-11-23T20:02:55.820Z,5.14
2018-11-23T20:05:27.199Z,5.20
2018-11-23T20:07:58.853Z,5.15
2018-11-23T20:10:30.002Z,5.20
2018-11-23T20:13:01.005Z,5.17
2018-11-23T20:15:32.104Z,5.15
2018-11-23T20:18:03.671Z,5.19
2018-11-23T20:20:34.684Z,5.26
2018-11-23T20:23:06.384Z,5.26
2018-11-23T20:25:38.091Z,5.21
2018-11-23T20:28:09.805Z,5.17
2018-11-23T20:30:42.561Z,5.23
2018-11-23T20:33:12.125Z,5.18
2018-11-23T20:35:43.182Z,5.21
2018-11-23T20:38:14.477Z,5.15
2018-11-23T20:40:45.971Z,5.12
2018-11-23T20:43:16.886Z,5.13
2018-11-23T20:45:48.092Z,5.16
2018-11-23T20:48:20.017Z,5.16
2018-11-23T20:50:51.185Z,5.15
2018-11-23T20:53:22.191Z,5.18
2018-11-23T20:55:53.441Z,5.17
2018-11-23T20:58:24.393Z,5.21
2018-11-23T21:00:55.421Z,5.26
2018-11-23T21:03:26.369Z,5.24
2018-11-23T21:05:57.340Z,5.24
2018-11-23T21:08:28.524Z,5.23
2018-11-23T21:10:59.417Z,5.25
2018-11-23T21:13:30.554Z,5.24
2018-11-23T21:16:01.575Z,5.28
2018-11-23T21:18:32.731Z,5.29
2018-11-23T21:21:03.671Z,5.26
2018-11-23T21:23:34.566Z,5.26
2018-11-23T21:26:05.981Z,5.27
2018-11-23T21:28:36.856Z,5.28
2018-11-23T21:31:07.895Z,5.26
2018-11-23T21:33:38.984Z,5.25
2018-11-23T21:36:10.040Z,5.26
2018-11-23T21:38:41.059Z,5.27
2018-11-23T21:41:12.269Z,5.22
2018-11-23T21:43:43.333Z,5.22
2018-11-23T21:46:14.285Z,5.21
2018-11-23T21:48:45.306Z,5.18
2018-11-23T21:51:16.538Z,5.20
2018-11-23T21:53:47.414Z,5.21
2018-11-23T21:56:18.733Z,5.20
2018-11-23T21:58:56.456Z,5.20
2018-11-23T22:01:27.462Z,5.25
2018-11-23T22:03:58.671Z,5.22
2018-11-23T22:06:29.767Z,5.22
2018-11-23T22:09:00.753Z,5.16
2018-11-23T22:11:31.731Z,5.19
2018-11-23T22:14:03.351Z,5.21
2018-11-23T22:16:34.560Z,5.23
2018-11-23T22:19:05.780Z,5.23
2018-11-23T22:21:36.692Z,5.25
2018-11-23T22:24:07.648Z,5.27
2018-11-23T22:26:40.504Z,5.30
2018-11-23T22:29:11.497Z,5.30
2018-11-23T22:31:42.473Z,5.30
2018-11-23T22:34:13.550Z,5.30
2018-11-23T22:36:44.657Z,5.33
2018-11-23T22:39:15.802Z,5.36
2018-11-23T22:41:46.664Z,5.40
2018-11-23T22:44:17.593Z,5.39
2018-11-23T22:46:49.444Z,5.36
2018-11-23T22:49:20.665Z,5.37
2018-11-23T22:51:51.781Z,5.41
2018-11-23T22:54:23.445Z,5.38
2018-11-23T22:56:54.420Z,5.40
2018-11-23T22:59:25.592Z,5.42
2018-11-23T23:01:56.633Z,5.38
2018-11-23T23:04:27.789Z,5.36
2018-11-23T23:06:58.708Z,5.30
2018-11-23T23:09:29.735Z,5.32
2018-11-23T23:12:01.058Z,5.31
2018-11-23T23:14:32.101Z,5.31
2018-11-23T23:17:03.072Z,5.33
2018-11-23T23:19:33.962Z,5.35
2018-11-23T23:22:05.046Z,5.30
2018-11-23T23:24:36.098Z,5.32
2018-11-23T23:27:07.234Z,5.32
2018-11-23T23:29:39.187Z,5.30
2018-11-23T23:32:10.432Z,5.35
2018-11-23T23:34:42.249Z,5.37
2018-11-23T23:37:13.217Z,5.41
2018-11-23T23:39:44.096Z,5.41
2018-11-23T23:42:14.969Z,5.44
2018-11-23T23:44:46.249Z,5.45
2018-11-23T23:47:17.264Z,5.47
2018-11-23T23:49:48.243Z,5.41
2018-11-23T23:52:19.154Z,5.42
2018-11-23T23:54:50.095Z,5.42
2018-11-23T23:57:21.124Z,5.45
2018-11-23T23:59:52.197Z,5.49
